createdAt,value
2022-08-11T00:02:20.521Z,20.50
2022-08-11T00:06:36.287Z,20.30
2022-08-11T00:10:38.717Z,20.30
2022-08-11T00:14:41.551Z,20.30
2022-08-11T00:18:45.174Z,20.10
2022-08-11T00:22:47.370Z,20.20
2022-08-11T00:26:53.474Z,20.10
2022-08-11T00:30:57.651Z,20.20
2022-08-11T00:35:53.702Z,20.00
2022-08-11T00:39:06.545Z,20.00
2022-08-11T00:43:23.711Z,19.70
2022-08-11T00:47:34.774Z,19.90
2022-08-11T00:52:05.013Z,19.80
2022-08-11T00:56:22.692Z,19.60
2022-08-11T01:00:26.381Z,19.80
2022-08-11T01:04:43.251Z,19.90
2022-08-11T01:09:02.332Z,19.70
2022-08-11T01:13:29.074Z,19.60
2022-08-11T01:18:07.137Z,19.50
2022-08-11T01:22:11.951Z,19.40
2022-08-11T01:26:16.759Z,19.40
2022-08-11T01:30:33.571Z,19.30
2022-08-11T01:35:07.434Z,19.40
2022-08-11T01:39:39.398Z,19.20
2022-08-11T01:44:13.114Z,19.10
2022-08-11T01:48:20.663Z,19.10
2022-08-11T01:52:40.025Z,18.60
2022-08-11T01:57:13.343Z,18.70
2022-08-11T02:01:50.753Z,19.10
2022-08-11T02:06:09.353Z,18.90
2022-08-11T02:10:51.550Z,18.80
2022-08-11T02:15:23.587Z,18.80
2022-08-11T02:20:06.666Z,18.20
2022-08-11T02:24:14.379Z,18.60
2022-08-11T02:28:26.991Z,18.60
2022-08-11T02:33:07.129Z,18.50
2022-08-11T02:37:33.230Z,18.40
2022-08-11T02:41:58.830Z,18.40
2022-08-11T02:46:21.757Z,18.40
2022-08-11T02:50:26.598Z,18.30
2022-08-11T02:54:40.246Z,18.20
2022-08-11T02:59:21.764Z,18.20
2022-08-11T03:03:32.661Z,18.10
2022-08-11T03:07:43.458Z,18.10
2022-08-11T03:12:24.571Z,18.10
2022-08-11T03:16:47.584Z,18.30
2022-08-11T03:20:58.227Z,18.20
2022-08-11T03:25:19.366Z,18.10
2022-08-11T03:29:26.952Z,17.90
2022-08-11T03:33:53.413Z,17.90
2022-08-11T03:37:58.341Z,17.70
2022-08-11T03:42:06.660Z,17.70
2022-08-11T03:46:09.966Z,17.70
2022-08-11T03:50:42.786Z,17.60
2022-08-11T03:55:11.912Z,17.60
2022-08-11T03:59:22.434Z,17.40
2022-08-11T04:04:00.540Z,17.50
2022-08-11T04:08:17.254Z,17.40
2022-08-11T04:12:36.645Z,17.40
2022-08-11T04:16:43.877Z,17.50
2022-08-11T04:21:06.587Z,17.50
2022-08-11T04:25:23.402Z,17.50
2022-08-11T04:30:04.994Z,17.50
2022-08-11T04:34:07.372Z,17.60
2022-08-11T04:38:31.995Z,17.50
2022-08-11T04:43:22.283Z,17.60
2022-08-11T04:48:03.638Z,17.70
2022-08-11T04:52:19.505Z,17.80
2022-08-11T04:56:42.084Z,17.90
2022-08-11T05:01:14.656Z,17.80
2022-08-11T05:05:31.603Z,18.00
2022-08-11T05:09:42.323Z,18.40
2022-08-11T05:14:08.504Z,18.80
2022-08-11T05:18:34.441Z,18.90
2022-08-11T05:22:55.195Z,19.20
2022-08-11T05:27:18.968Z,19.40
2022-08-11T05:31:42.465Z,19.60
2022-08-11T05:36:02.143Z,19.80
2022-08-11T05:40:16.878Z,20.30
2022-08-11T05:44:38.690Z,20.60
2022-08-11T05:48:59.449Z,20.70
2022-08-11T05:53:21.364Z,21.20
2022-08-11T05:57:51.279Z,21.60
2022-08-11T06:01:32.605Z,21.80
2022-08-11T06:05:38.679Z,22.30
2022-08-11T06:09:48.144Z,22.20
2022-08-11T06:13:49.588Z,23.00
2022-08-11T06:17:51.275Z,23.40
2022-08-11T06:21:53.549Z,24.20
2022-08-11T06:25:56.276Z,24.80
2022-08-11T06:29:58.535Z,25.10
2022-08-11T06:34:09.466Z,25.80
2022-08-11T06:38:15.450Z,26.50
2022-08-11T06:42:36.386Z,25.40
2022-08-11T06:46:40.692Z,25.00
2022-08-11T06:51:03.732Z,24.90
2022-08-11T06:55:54.889Z,25.10
2022-08-11T06:59:30.922Z,25.40
2022-08-11T07:03:35.810Z,25.10
2022-08-11T07:08:33.614Z,25.00
2022-08-11T07:12:27.368Z,25.00
2022-08-11T07:16:30.029Z,25.00
2022-08-11T07:20:49.594Z,25.40
2022-08-11T07:25:22.294Z,25.80
2022-08-11T07:29:23.642Z,25.90
2022-08-11T07:34:08.239Z,26.20
2022-08-11T07:37:35.454Z,26.60
2022-08-11T07:41:36.663Z,27.30
2022-08-11T07:46:16.047Z,27.30
2022-08-11T07:50:35.609Z,27.90
2022-08-11T07:54:38.577Z,27.90
2022-08-11T07:59:04.232Z,29.10
2022-08-11T08:03:21.376Z,27.20
2022-08-11T08:07:41.719Z,28.70
2022-08-11T08:12:02.810Z,29.90
2022-08-11T08:16:22.984Z,30.00
2022-08-11T08:20:40.234Z,28.50
2022-08-11T08:24:42.989Z,28.40
2022-08-11T08:28:45.920Z,28.00
2022-08-11T08:32:47.895Z,27.20
2022-08-11T08:36:51.428Z,27.70
2022-08-11T08:40:55.991Z,28.50
2022-08-11T08:45:00.366Z,28.50
2022-08-11T08:49:03.365Z,26.80
2022-08-11T08:53:06.686Z,28.00
2022-08-11T08:57:09.288Z,28.30
2022-08-11T09:01:12.858Z,28.10
2022-08-11T09:05:18.640Z,28.50
2022-08-11T09:09:23.813Z,28.40
2022-08-11T09:13:26.987Z,28.00
2022-08-11T09:17:31.367Z,28.80
2022-08-11T09:21:46.436Z,28.60
2022-08-11T09:25:54.816Z,29.40
2022-08-11T09:29:56.636Z,29.80
2022-08-11T09:33:58.909Z,28.70
2022-08-11T09:38:19.661Z,28.40
2022-08-11T09:42:25.208Z,28.80
2022-08-11T09:46:28.160Z,29.30
2022-08-11T09:50:29.899Z,29.80
2022-08-11T09:54:33.321Z,28.80
2022-08-11T09:58:43.026Z,29.40
2022-08-11T10:02:45.487Z,30.00
2022-08-11T10:07:01.531Z,29.70
2022-08-11T10:11:08.279Z,31.10
2022-08-11T10:15:31.854Z,30.00
2022-08-11T10:19:37.516Z,29.20
2022-08-11T10:24:00.392Z,29.20
2022-08-11T10:28:28.306Z,28.60
2022-08-11T10:32:31.590Z,28.40
2022-08-11T10:36:39.138Z,29.50
2022-08-11T10:40:42.587Z,28.70
2022-08-11T10:44:47.299Z,29.90
2022-08-11T10:48:48.932Z,29.50
2022-08-11T10:53:09.339Z,30.10
2022-08-11T10:57:29.926Z,29.20
2022-08-11T11:01:39.605Z,29.20
2022-08-11T11:06:12.821Z,30.30
2022-08-11T11:09:48.141Z,29.90
2022-08-11T11:14:10.148Z,30.50
2022-08-11T11:18:24.252Z,31.50
2022-08-11T11:22:37.619Z,31.90
2022-08-11T11:26:57.791Z,30.60
2022-08-11T11:31:08.313Z,29.70
2022-08-11T11:35:19.469Z,30.00
2022-08-11T11:39:26.537Z,28.90
2022-08-11T11:43:28.515Z,29.80
2022-08-11T11:47:31.350Z,30.50
2022-08-11T11:51:33.139Z,30.10
2022-08-11T11:55:35.729Z,30.40
2022-08-11T11:59:55.000Z,31.20
2022-08-11T12:03:57.611Z,30.30
2022-08-11T12:08:18.309Z,31.00
2022-08-11T12:12:38.863Z,30.40
2022-08-11T12:16:43.216Z,31.20
2022-08-11T12:20:45.549Z,31.30
2022-08-11T12:25:05.585Z,31.70
2022-08-11T12:29:09.643Z,33.10
2022-08-11T12:33:12.129Z,32.30
2022-08-11T12:37:14.925Z,33.90
2022-08-11T12:41:34.916Z,36.10
2022-08-11T12:45:39.952Z,33.40
2022-08-11T12:50:02.976Z,33.70
2022-08-11T12:54:16.434Z,36.20
2022-08-11T12:58:17.750Z,37.50
2022-08-11T13:02:43.877Z,34.40
2022-08-11T13:06:43.806Z,34.20
2022-08-11T13:11:04.762Z,34.30
2022-08-11T13:15:07.098Z,34.60
2022-08-11T13:19:10.187Z,33.60
2022-08-11T13:23:12.839Z,35.80
2022-08-11T13:27:17.692Z,36.60
2022-08-11T13:31:18.913Z,35.70
2022-08-11T13:35:20.842Z,35.50
2022-08-11T13:39:25.180Z,33.20
2022-08-11T13:43:28.111Z,34.30
2022-08-11T13:47:29.740Z,35.80
2022-08-11T13:51:35.388Z,33.40
2022-08-11T13:55:52.107Z,33.70
2022-08-11T13:59:51.725Z,36.80
2022-08-11T14:04:30.734Z,37.00
2022-08-11T14:07:52.426Z,33.90
2022-08-11T14:12:23.262Z,35.10
2022-08-11T14:16:22.117Z,33.90
2022-08-11T14:20:40.183Z,34.50
2022-08-11T14:24:28.116Z,34.20
2022-08-11T14:28:36.560Z,34.20
2022-08-11T14:32:36.117Z,34.40
2022-08-11T14:36:45.644Z,34.80
2022-08-11T14:41:06.750Z,34.40
2022-08-11T14:45:54.421Z,34.60
2022-08-11T14:49:38.007Z,34.00
2022-08-11T14:53:41.074Z,33.80
2022-08-11T14:57:55.271Z,34.20
2022-08-11T15:02:05.983Z,33.00
2022-08-11T15:06:07.534Z,34.20
2022-08-11T15:10:13.008Z,34.40
2022-08-11T15:14:16.466Z,33.80
2022-08-11T15:18:20.368Z,34.00
2022-08-11T15:22:40.342Z,33.90
2022-08-11T15:27:00.963Z,32.80
2022-08-11T15:31:23.607Z,33.10
2022-08-11T15:35:45.534Z,33.60
2022-08-11T15:40:31.360Z,32.90
2022-08-11T15:45:01.619Z,33.50
2022-08-11T15:48:57.718Z,33.70
2022-08-11T15:53:05.858Z,34.10
2022-08-11T15:57:07.603Z,33.20
2022-08-11T16:01:29.095Z,32.30
2022-08-11T16:05:46.656Z,32.90
2022-08-11T16:09:51.897Z,33.80
2022-08-11T16:14:12.238Z,33.60
2022-08-11T16:18:16.340Z,34.00
2022-08-11T16:22:21.523Z,32.60
2022-08-11T16:27:07.406Z,31.90
2022-08-11T16:30:28.913Z,31.80
2022-08-11T16:34:49.809Z,30.80
2022-08-11T16:38:53.263Z,31.10
2022-08-11T16:43:15.392Z,30.80
2022-08-11T16:47:24.152Z,30.80
2022-08-11T16:51:22.942Z,31.50
2022-08-11T16:55:51.742Z,31.40
2022-08-11T16:59:31.498Z,32.10
2022-08-11T17:03:52.724Z,31.40
2022-08-11T17:08:12.977Z,31.80
2022-08-11T17:12:34.308Z,31.90
2022-08-11T17:16:39.874Z,31.50
2022-08-11T17:20:44.001Z,31.30
2022-08-11T17:24:47.478Z,31.20
2022-08-11T17:28:55.806Z,31.30
2022-08-11T17:33:15.414Z,31.70
2022-08-11T17:37:18.137Z,31.90
2022-08-11T17:41:40.129Z,31.70
2022-08-11T17:46:02.110Z,31.40
2022-08-11T17:50:16.606Z,31.10
2022-08-11T17:54:27.283Z,30.00
2022-08-11T17:58:48.159Z,29.60
2022-08-11T18:03:10.528Z,28.90
2022-08-11T18:07:30.289Z,29.10
2022-08-11T18:12:11.575Z,28.70
2022-08-11T18:16:13.811Z,28.70
2022-08-11T18:20:33.456Z,28.90
2022-08-11T18:29:41.998Z,29.10
2022-08-11T18:34:08.358Z,28.60
2022-08-11T18:38:30.315Z,28.40
2022-08-11T18:42:53.272Z,28.20
2022-08-11T18:47:14.891Z,27.70
2022-08-11T18:51:37.402Z,27.90
2022-08-11T18:56:00.461Z,27.70
2022-08-11T19:00:20.864Z,27.40
2022-08-11T19:04:41.477Z,27.30
2022-08-11T19:09:04.883Z,27.30
2022-08-11T19:13:28.112Z,27.50
2022-08-11T19:17:50.031Z,27.00
2022-08-11T19:22:11.000Z,26.90
2022-08-11T19:26:31.466Z,27.00
2022-08-11T19:30:51.764Z,26.80
2022-08-11T19:35:11.752Z,26.80
2022-08-11T19:39:32.914Z,26.20
2022-08-11T19:43:53.656Z,26.40
2022-08-11T19:48:31.148Z,26.20
2022-08-11T19:52:35.618Z,26.60
2022-08-11T19:56:56.258Z,26.50
2022-08-11T20:01:16.231Z,26.40
2022-08-11T20:05:35.940Z,26.10
2022-08-11T20:10:04.917Z,26.70
2022-08-11T20:14:20.701Z,26.50
2022-08-11T20:18:42.140Z,26.30
2022-08-11T20:23:03.079Z,26.40
2022-08-11T20:27:25.252Z,26.20
2022-08-11T20:31:45.389Z,26.00
2022-08-11T20:36:06.834Z,25.60
2022-08-11T20:40:27.673Z,25.50
2022-08-11T20:44:49.620Z,25.50
2022-08-11T20:49:10.931Z,25.60
2022-08-11T20:53:35.950Z,25.50
2022-08-11T20:58:05.296Z,25.20
2022-08-11T21:02:22.344Z,25.80
2022-08-11T21:06:45.215Z,25.90
2022-08-11T21:11:07.501Z,26.00
2022-08-11T21:15:38.866Z,25.90
2022-08-11T21:20:00.564Z,26.30
2022-08-11T21:24:16.160Z,26.10
2022-08-11T21:28:37.692Z,25.60
2022-08-11T21:33:00.187Z,25.80
2022-08-11T21:37:21.221Z,26.30
2022-08-11T21:41:41.053Z,26.40
2022-08-11T21:46:04.156Z,26.30
2022-08-11T21:50:24.061Z,26.00
2022-08-11T21:54:43.422Z,25.60
2022-08-11T21:59:07.146Z,25.00
2022-08-11T22:03:24.339Z,24.80
2022-08-11T22:07:45.395Z,24.80
2022-08-11T22:12:34.376Z,25.00
2022-08-11T22:16:26.535Z,24.80
2022-08-11T22:20:48.185Z,24.80
2022-08-11T22:25:16.676Z,25.20
2022-08-11T22:29:38.312Z,24.80
2022-08-11T22:34:02.541Z,24.60
2022-08-11T22:38:15.420Z,24.10
2022-08-11T22:42:34.877Z,24.20
2022-08-11T22:46:54.719Z,24.10
2022-08-11T22:51:17.225Z,24.00
2022-08-11T22:55:38.144Z,23.80
2022-08-11T22:59:58.530Z,23.50
2022-08-11T23:04:19.243Z,23.50
2022-08-11T23:08:39.124Z,23.20
2022-08-11T23:13:00.121Z,22.70
2022-08-11T23:17:20.068Z,22.30
2022-08-11T23:21:39.455Z,22.30
2022-08-11T23:26:00.642Z,22.80
2022-08-11T23:30:21.254Z,22.80
2022-08-11T23:35:04.021Z,22.70
2022-08-11T23:39:06.027Z,22.80
2022-08-11T23:43:25.868Z,22.50
2022-08-11T23:47:50.156Z,22.40
2022-08-11T23:52:10.870Z,22.40
2022-08-11T23:56:31.187Z,22.00
